createdAt,value
2018-07-02T00:02:13.092Z,13.17
2018-07-02T00:04:47.157Z,12.03
2018-07-02T00:07:22.578Z,12.87
2018-07-02T00:09:56.765Z,13.53
2018-07-02T00:12:30.803Z,13.40
2018-07-02T00:15:05.060Z,12.00
2018-07-02T00:17:39.132Z,14.10
2018-07-02T00:20:13.224Z,12.80
2018-07-02T00:22:47.144Z,12.40
2018-07-02T00:25:21.159Z,12.70
2018-07-02T00:27:55.138Z,12.20
2018-07-02T00:30:29.139Z,12.57
2018-07-02T00:33:03.195Z,11.70
2018-07-02T00:35:37.192Z,12.33
2018-07-02T00:38:11.133Z,14.23
2018-07-02T00:40:45.129Z,13.00
2018-07-02T00:44:43.533Z,14.07
2018-07-02T00:47:17.656Z,13.53
2018-07-02T00:49:51.724Z,14.53
2018-07-02T00:53:50.282Z,14.17
2018-07-02T00:56:24.432Z,14.23
2018-07-02T00:58:58.529Z,14.83
2018-07-02T01:01:32.455Z,14.03
2018-07-02T01:04:06.807Z,14.97
2018-07-02T01:06:40.895Z,15.10
2018-07-02T01:09:15.091Z,15.40
2018-07-02T01:11:49.006Z,18.30
2018-07-02T01:14:23.013Z,18.03
2018-07-02T01:16:57.347Z,16.90
2018-07-02T01:19:31.337Z,16.00
2018-07-02T01:22:05.436Z,16.47
2018-07-02T01:24:39.482Z,15.37
2018-07-02T01:27:13.598Z,15.23
2018-07-02T01:29:47.613Z,14.50
2018-07-02T01:32:21.588Z,14.83
2018-07-02T01:34:57.434Z,16.67
2018-07-02T01:37:31.393Z,14.33
2018-07-02T01:40:05.536Z,14.57
2018-07-02T01:42:39.632Z,13.73
2018-07-02T01:45:13.716Z,14.63
2018-07-02T01:47:47.786Z,14.47
2018-07-02T01:50:22.127Z,14.20
2018-07-02T01:52:56.045Z,13.87
2018-07-02T01:55:30.066Z,14.53
2018-07-02T01:58:04.124Z,15.73
2018-07-02T02:00:38.222Z,15.23
2018-07-02T02:03:12.368Z,16.07
2018-07-02T02:05:46.510Z,15.30
2018-07-02T02:08:20.584Z,16.10
2018-07-02T02:10:54.607Z,16.87
2018-07-02T02:13:28.505Z,16.20
2018-07-02T02:16:02.501Z,13.73
2018-07-02T02:18:37.624Z,15.50
2018-07-02T02:21:11.696Z,13.93
2018-07-02T02:23:45.668Z,15.30
2018-07-02T02:26:19.653Z,17.00
2018-07-02T02:28:53.573Z,15.87
2018-07-02T02:31:27.557Z,16.27
2018-07-02T02:34:01.511Z,15.43
2018-07-02T02:36:35.542Z,15.10
2018-07-02T02:39:10.246Z,14.13
2018-07-02T02:41:44.220Z,13.23
2018-07-02T02:44:18.166Z,13.40
2018-07-02T02:46:52.168Z,13.23
2018-07-02T02:49:26.201Z,14.10
2018-07-02T02:52:00.287Z,15.20
2018-07-02T02:54:34.164Z,15.10
2018-07-02T02:57:08.282Z,16.40
2018-07-02T02:59:42.657Z,16.17
2018-07-02T03:02:16.691Z,16.53
2018-07-02T03:04:50.968Z,18.47
2018-07-02T03:07:25.076Z,18.33
2018-07-02T03:09:59.092Z,19.27
2018-07-02T03:12:33.075Z,18.30
2018-07-02T03:15:07.252Z,17.23
2018-07-02T03:17:41.371Z,16.73
2018-07-02T03:20:15.489Z,13.97
2018-07-02T03:22:49.461Z,13.60
2018-07-02T03:25:23.536Z,13.53
2018-07-02T03:27:57.583Z,13.00
2018-07-02T03:30:31.573Z,13.93
2018-07-02T03:33:05.668Z,15.33
2018-07-02T03:35:39.694Z,16.10
2018-07-02T03:38:13.750Z,19.07
2018-07-02T03:40:47.826Z,20.70
2018-07-02T03:43:21.856Z,32.17
2018-07-02T03:45:55.920Z,22.53
2018-07-02T03:48:29.943Z,31.87
2018-07-02T03:51:04.324Z,20.37
2018-07-02T03:53:38.724Z,18.63
2018-07-02T03:56:12.820Z,16.33
2018-07-02T03:58:46.790Z,18.07
2018-07-02T04:01:20.936Z,17.73
2018-07-02T04:03:54.969Z,16.43
2018-07-02T04:06:28.921Z,19.10
2018-07-02T04:09:03.435Z,16.47
2018-07-02T04:11:37.650Z,16.73
2018-07-02T04:14:11.684Z,16.00
2018-07-02T04:16:45.890Z,18.00
2018-07-02T04:19:19.913Z,19.80
2018-07-02T04:21:54.050Z,19.47
2018-07-02T04:24:28.182Z,20.87
2018-07-02T04:27:02.262Z,19.20
2018-07-02T04:29:36.505Z,20.33
2018-07-02T04:32:10.484Z,17.10
2018-07-02T04:34:44.524Z,19.50
2018-07-02T04:37:18.481Z,19.37
2018-07-02T04:39:52.715Z,19.40
2018-07-02T04:42:26.693Z,22.37
2018-07-02T04:45:00.756Z,23.57
2018-07-02T04:47:34.914Z,25.17
2018-07-02T04:50:09.060Z,24.93
2018-07-02T04:52:43.129Z,20.73
2018-07-02T04:55:17.185Z,20.03
2018-07-02T04:57:51.156Z,18.63
2018-07-02T05:00:25.228Z,17.83
2018-07-02T05:02:59.288Z,19.40
2018-07-02T05:05:33.414Z,19.27
2018-07-02T05:08:07.394Z,17.20
2018-07-02T05:10:41.436Z,16.30
2018-07-02T05:13:15.584Z,15.53
2018-07-02T05:15:49.492Z,16.03
2018-07-02T05:18:23.404Z,15.47
2018-07-02T05:20:57.453Z,14.57
2018-07-02T05:23:25.507Z,15.73
2018-07-02T05:25:59.575Z,15.27
2018-07-02T05:28:33.520Z,12.60
2018-07-02T05:31:07.643Z,12.27
2018-07-02T05:33:41.716Z,11.13
2018-07-02T05:36:09.675Z,11.07
2018-07-02T05:38:43.767Z,11.17
2018-07-02T05:41:17.904Z,11.73
2018-07-02T05:43:52.174Z,10.40
2018-07-02T05:46:26.170Z,10.73
2018-07-02T05:49:00.076Z,11.07
2018-07-02T05:51:34.077Z,11.33
2018-07-02T05:54:08.358Z,10.67
2018-07-02T05:56:42.503Z,10.33
2018-07-02T05:59:16.489Z,10.63
2018-07-02T06:01:50.547Z,10.13
2018-07-02T06:04:24.459Z,9.63
2018-07-02T06:06:58.597Z,10.23
2018-07-02T06:09:32.542Z,9.90
2018-07-02T06:12:06.782Z,9.53
2018-07-02T06:14:40.764Z,8.43
2018-07-02T06:17:14.821Z,8.03
2018-07-02T06:19:48.745Z,8.93
2018-07-02T06:22:22.720Z,8.73
2018-07-02T06:24:57.201Z,8.87
2018-07-02T06:27:31.260Z,8.67
2018-07-02T06:30:05.344Z,10.73
2018-07-02T06:32:39.529Z,10.67
2018-07-02T06:35:13.505Z,9.67
2018-07-02T06:37:47.620Z,10.60
2018-07-02T06:40:21.466Z,9.87
2018-07-02T06:42:55.475Z,10.73
2018-07-02T06:45:29.543Z,11.73
2018-07-02T06:48:03.553Z,10.93
2018-07-02T06:50:38.451Z,10.80
2018-07-02T06:53:12.593Z,10.93
2018-07-02T06:55:46.699Z,10.17
2018-07-02T06:58:20.881Z,10.87
2018-07-02T07:00:54.987Z,10.23
2018-07-02T07:03:29.086Z,10.30
2018-07-02T07:06:03.111Z,9.90
2018-07-02T07:08:37.094Z,10.40
2018-07-02T07:11:11.026Z,10.30
2018-07-02T07:13:45.101Z,10.53
2018-07-02T07:16:19.086Z,10.40
2018-07-02T07:18:53.144Z,10.37
2018-07-02T07:21:27.039Z,10.07
2018-07-02T07:24:01.040Z,10.17
2018-07-02T07:26:35.015Z,10.07
2018-07-02T07:29:09.031Z,11.40
2018-07-02T07:31:43.068Z,8.93
2018-07-02T07:34:17.164Z,8.23
2018-07-02T07:36:51.156Z,8.10
2018-07-02T07:39:25.201Z,8.57
2018-07-02T07:41:59.084Z,8.87
2018-07-02T07:44:33.684Z,9.47
2018-07-02T07:47:07.611Z,9.00
2018-07-02T07:49:41.723Z,8.90
2018-07-02T07:52:15.733Z,8.60
2018-07-02T07:54:49.759Z,8.83
2018-07-02T07:57:23.848Z,8.63
2018-07-02T07:59:58.139Z,9.23
2018-07-02T08:02:32.251Z,8.20
2018-07-02T08:05:06.336Z,9.17
2018-07-02T08:07:40.254Z,8.80
2018-07-02T08:10:14.398Z,8.50
2018-07-02T08:12:48.530Z,8.20
2018-07-02T08:15:22.673Z,8.50
2018-07-02T08:17:56.625Z,8.53
2018-07-02T08:20:30.668Z,8.27
2018-07-02T08:23:04.698Z,8.33
2018-07-02T08:25:38.840Z,8.87
2018-07-02T08:28:12.973Z,8.83
2018-07-02T08:30:47.087Z,8.07
2018-07-02T08:33:21.184Z,8.37
2018-07-02T08:35:55.191Z,9.03
2018-07-02T08:38:29.210Z,7.23
2018-07-02T08:41:03.374Z,11.40
2018-07-02T08:43:37.452Z,8.70
2018-07-02T08:46:11.594Z,7.50
2018-07-02T08:48:45.912Z,6.70
2018-07-02T08:51:19.878Z,7.87
2018-07-02T08:53:53.849Z,7.60
2018-07-02T08:56:27.989Z,7.10
2018-07-02T08:59:02.163Z,6.90
2018-07-02T09:01:36.257Z,6.47
2018-07-02T09:04:13.538Z,6.70
2018-07-02T09:06:47.474Z,7.53
2018-07-02T09:09:21.645Z,7.13
2018-07-02T09:11:55.690Z,7.50
2018-07-02T09:14:29.656Z,6.43
2018-07-02T09:17:04.106Z,6.77
2018-07-02T09:19:38.171Z,6.93
2018-07-02T09:22:12.271Z,6.70
2018-07-02T09:24:46.775Z,6.57
2018-07-02T09:27:20.907Z,7.10
2018-07-02T09:29:55.218Z,6.53
2018-07-02T09:32:29.244Z,5.60
2018-07-02T09:35:03.368Z,5.87
2018-07-02T09:37:37.376Z,5.33
2018-07-02T09:40:11.257Z,5.17
2018-07-02T09:42:45.320Z,4.77
2018-07-02T09:45:19.283Z,4.10
2018-07-02T09:47:54.123Z,4.03
2018-07-02T09:50:28.080Z,4.20
2018-07-02T09:53:02.008Z,4.13
2018-07-02T09:55:35.965Z,4.80
2018-07-02T09:58:09.901Z,3.97
2018-07-02T10:00:43.920Z,4.17
2018-07-02T10:03:17.979Z,3.70
2018-07-02T10:05:52.081Z,3.53
2018-07-02T10:08:26.046Z,3.83
2018-07-02T10:11:05.331Z,4.00
2018-07-02T10:13:39.311Z,4.70
2018-07-02T10:16:13.355Z,3.53
2018-07-02T10:18:47.603Z,3.57
2018-07-02T10:21:21.578Z,3.80
2018-07-02T10:23:55.580Z,3.83
2018-07-02T10:26:29.497Z,21.20
2018-07-02T10:29:03.488Z,3.70
2018-07-02T10:31:37.729Z,4.73
2018-07-02T10:34:11.726Z,3.80
2018-07-02T10:36:45.732Z,3.60
2018-07-02T10:39:19.842Z,3.67
2018-07-02T10:41:53.841Z,5.00
2018-07-02T10:44:27.849Z,3.47
2018-07-02T10:47:01.847Z,3.30
2018-07-02T10:49:35.827Z,3.00
2018-07-02T10:52:09.788Z,3.20
2018-07-02T10:54:43.682Z,3.17
2018-07-02T10:57:17.919Z,3.07
2018-07-02T10:59:51.863Z,3.60
2018-07-02T11:02:42.274Z,3.57
2018-07-02T11:05:16.300Z,3.73
2018-07-02T11:07:50.122Z,3.87
2018-07-02T11:10:24.068Z,3.80
2018-07-02T11:13:00.841Z,4.30
2018-07-02T11:15:34.806Z,3.77
2018-07-02T11:18:09.088Z,4.10
2018-07-02T11:20:43.028Z,4.17
2018-07-02T11:23:17.009Z,3.70
2018-07-02T11:25:51.103Z,3.87
2018-07-02T11:28:24.927Z,3.83
2018-07-02T11:30:58.955Z,3.87
2018-07-02T11:33:32.880Z,4.00
2018-07-02T11:36:07.059Z,3.73
2018-07-02T11:38:40.933Z,4.37
2018-07-02T11:41:14.798Z,4.47
2018-07-02T11:43:48.679Z,4.10
2018-07-02T11:46:16.535Z,3.97
2018-07-02T11:48:44.347Z,4.13
2018-07-02T11:51:12.230Z,3.90
2018-07-02T11:53:40.256Z,4.20
2018-07-02T11:56:08.089Z,4.57
2018-07-02T11:58:35.911Z,3.90
2018-07-02T12:01:03.818Z,4.03
2018-07-02T12:03:37.741Z,4.27
2018-07-02T12:06:12.693Z,4.33
2018-07-02T12:08:46.776Z,4.20
2018-07-02T12:11:20.872Z,4.77
2018-07-02T12:13:54.921Z,4.50
2018-07-02T12:16:28.928Z,5.03
2018-07-02T12:19:02.685Z,3.77
2018-07-02T12:21:36.621Z,4.73
2018-07-02T12:27:19.869Z,4.53
2018-07-02T12:30:00.478Z,5.17
2018-07-02T12:32:34.770Z,5.20
2018-07-02T12:35:09.140Z,5.00
2018-07-02T12:37:44.228Z,5.30
2018-07-02T12:40:18.300Z,5.20
2018-07-02T15:31:38.834Z,3.90
2018-07-02T15:34:06.869Z,4.13
2018-07-02T15:36:34.710Z,5.07
2018-07-02T15:39:02.805Z,4.60
2018-07-02T15:41:30.677Z,4.57
2018-07-02T15:43:58.600Z,3.63
2018-07-02T15:49:00.304Z,5.03
2018-07-02T15:51:28.182Z,4.30
2018-07-02T15:53:56.219Z,4.43
2018-07-02T15:56:24.997Z,4.80
2018-07-02T15:58:53.162Z,4.33
2018-07-02T16:01:21.162Z,5.20
2018-07-02T16:03:49.001Z,4.30
2018-07-02T16:06:17.159Z,4.60
2018-07-02T16:08:44.899Z,4.97
2018-07-02T16:11:12.832Z,4.93
2018-07-02T16:13:40.716Z,4.70
2018-07-02T16:16:08.652Z,4.53
2018-07-02T16:18:36.531Z,5.37
2018-07-02T16:21:04.460Z,4.83
2018-07-02T16:23:32.349Z,14.80
2018-07-02T16:26:00.499Z,5.10
2018-07-02T16:28:28.365Z,5.77
2018-07-02T16:30:57.434Z,5.20
2018-07-02T16:33:31.214Z,5.50
2018-07-02T16:35:59.163Z,5.73
2018-07-02T16:38:27.426Z,5.03
2018-07-02T16:40:55.256Z,4.63
2018-07-02T16:43:23.124Z,5.20
2018-07-02T16:45:50.980Z,6.20
2018-07-02T16:48:18.813Z,17.17
2018-07-02T16:50:46.732Z,5.67
2018-07-02T16:53:14.633Z,5.17
2018-07-02T16:55:42.450Z,5.57
2018-07-02T16:58:10.358Z,4.60
2018-07-02T17:00:38.169Z,7.73
2018-07-02T17:03:06.535Z,6.80
2018-07-02T17:05:34.410Z,5.30
2018-07-02T17:08:02.228Z,5.43
2018-07-02T17:10:30.041Z,5.23
2018-07-02T17:12:57.985Z,5.33
2018-07-02T17:15:25.837Z,5.10
2018-07-02T17:17:53.784Z,7.90
2018-07-02T17:20:21.819Z,6.40
2018-07-02T17:22:49.633Z,4.83
2018-07-02T17:25:17.471Z,6.60
2018-07-02T17:27:45.332Z,10.30
2018-07-02T17:30:13.211Z,14.60
2018-07-02T17:32:42.439Z,17.53
2018-07-02T17:35:10.468Z,11.97
2018-07-02T17:37:38.526Z,11.93
2018-07-02T17:40:07.138Z,8.23
2018-07-02T17:42:35.393Z,9.70
2018-07-02T17:45:03.584Z,10.00
2018-07-02T17:47:31.785Z,10.83
2018-07-02T17:49:59.839Z,8.67
2018-07-02T17:52:27.804Z,8.30
2018-07-02T17:54:55.654Z,8.57
2018-07-02T17:57:23.595Z,8.77
2018-07-02T17:59:51.515Z,8.20
2018-07-02T18:02:19.633Z,7.07
2018-07-02T18:04:48.750Z,7.20
2018-07-02T18:07:16.614Z,6.07
2018-07-02T18:09:50.576Z,6.87
2018-07-02T18:12:18.445Z,7.33
2018-07-02T18:14:46.293Z,7.47
2018-07-02T18:17:15.442Z,9.53
2018-07-02T18:19:43.437Z,26.13
2018-07-02T18:22:13.136Z,8.63
2018-07-02T18:24:41.973Z,10.17
2018-07-02T18:27:10.740Z,8.07
2018-07-02T18:29:38.772Z,10.93
2018-07-02T18:32:09.160Z,9.23
2018-07-02T18:34:38.104Z,8.20
2018-07-02T18:37:06.410Z,8.93
2018-07-02T18:39:34.741Z,10.97
2018-07-02T18:42:02.747Z,19.70
2018-07-02T18:44:31.195Z,12.63
2018-07-02T18:46:59.086Z,8.73
2018-07-02T18:49:27.271Z,7.03
2018-07-02T18:51:55.165Z,6.20
2018-07-02T18:54:23.132Z,6.20
2018-07-02T18:56:51.063Z,6.63
2018-07-02T18:59:19.544Z,6.83
2018-07-02T19:01:47.496Z,6.67
2018-07-02T19:04:15.449Z,6.47
2018-07-02T19:06:44.766Z,8.70
2018-07-02T19:09:16.210Z,10.17
2018-07-02T19:11:44.346Z,16.57
2018-07-02T19:14:13.194Z,16.40
2018-07-02T19:16:41.671Z,16.90
2018-07-02T19:19:09.625Z,72.97
2018-07-02T19:21:37.509Z,21.47
2018-07-02T19:24:05.542Z,87.27
2018-07-02T19:26:33.390Z,24.93
2018-07-02T19:29:01.265Z,11.03
2018-07-02T19:31:29.277Z,12.83
2018-07-02T19:33:57.324Z,9.30
2018-07-02T19:36:25.249Z,9.07
2018-07-02T19:38:53.271Z,8.00
2018-07-02T19:41:21.859Z,9.43
2018-07-02T19:43:49.960Z,8.77
2018-07-02T19:46:17.918Z,8.90
2018-07-02T19:48:45.936Z,8.43
2018-07-02T19:51:13.852Z,9.13
2018-07-02T19:55:06.354Z,8.77
2018-07-02T19:57:34.229Z,7.60
2018-07-02T20:00:13.669Z,9.03
2018-07-02T20:02:48.236Z,7.83
2018-07-02T20:05:22.560Z,8.43
2018-07-02T20:07:56.477Z,9.47
2018-07-02T20:10:31.996Z,8.73
2018-07-02T20:13:07.386Z,10.00
2018-07-02T20:15:41.897Z,10.80
2018-07-02T20:18:16.121Z,13.13
2018-07-02T20:20:50.100Z,11.67
2018-07-02T20:23:23.994Z,9.33
2018-07-02T20:25:57.969Z,9.07
2018-07-02T20:28:32.166Z,10.43
2018-07-02T20:31:06.172Z,9.53
2018-07-02T20:33:40.578Z,11.20
2018-07-02T20:36:14.620Z,9.27
2018-07-02T20:38:48.543Z,9.50
2018-07-02T20:41:22.714Z,9.37
2018-07-02T20:43:56.669Z,8.77
2018-07-02T20:46:30.556Z,9.57
2018-07-02T20:49:04.987Z,9.07
2018-07-02T20:51:39.136Z,9.60
2018-07-02T20:54:13.154Z,10.27
2018-07-02T20:56:47.110Z,9.00
2018-07-02T20:59:20.927Z,9.90
2018-07-02T21:01:54.862Z,9.77
2018-07-02T21:04:29.009Z,9.07
2018-07-02T21:07:03.799Z,10.80
2018-07-02T21:09:37.602Z,10.67
2018-07-02T21:12:11.476Z,11.43
2018-07-02T21:14:45.294Z,12.07
2018-07-02T21:17:19.291Z,11.23
2018-07-02T21:19:53.079Z,9.40
2018-07-02T21:22:27.170Z,10.33
2018-07-02T21:25:00.948Z,9.87
2018-07-02T21:27:34.848Z,11.73
2018-07-02T21:30:09.393Z,11.83
2018-07-02T21:32:43.253Z,12.23
2018-07-02T21:35:17.109Z,11.70
2018-07-02T21:37:51.036Z,11.23
2018-07-02T21:40:25.045Z,9.93
2018-07-02T21:42:59.156Z,10.63
2018-07-02T21:45:32.963Z,11.07
2018-07-02T21:48:07.139Z,9.57
2018-07-02T21:50:41.180Z,10.00
2018-07-02T21:53:15.253Z,8.93
2018-07-02T21:55:49.156Z,9.43
2018-07-02T21:58:23.782Z,8.53
2018-07-02T22:00:58.394Z,9.10
2018-07-02T22:03:32.683Z,8.50
2018-07-02T22:06:06.793Z,9.33
2018-07-02T22:08:40.937Z,9.17
2018-07-02T22:11:15.242Z,8.90
2018-07-02T22:13:49.270Z,9.87
2018-07-02T22:16:23.177Z,11.33
2018-07-02T22:18:57.172Z,11.73
2018-07-02T22:21:30.966Z,13.43
2018-07-02T22:24:05.037Z,12.40
2018-07-02T22:26:39.021Z,13.87
2018-07-02T22:29:12.957Z,14.50
2018-07-02T22:31:46.928Z,14.23
2018-07-02T22:34:20.820Z,14.30
2018-07-02T22:36:54.617Z,12.60
2018-07-02T22:39:28.766Z,12.90
2018-07-02T22:42:02.780Z,14.73
2018-07-02T22:44:36.797Z,14.90
2018-07-02T22:47:10.872Z,15.50
2018-07-02T22:49:44.875Z,14.30
2018-07-02T22:52:18.882Z,12.53
2018-07-02T22:54:52.840Z,14.23
2018-07-02T22:57:26.772Z,14.20
2018-07-02T23:00:00.543Z,13.87
2018-07-02T23:02:34.330Z,13.10
2018-07-02T23:05:08.345Z,13.90
2018-07-02T23:07:42.228Z,13.03
2018-07-02T23:10:16.260Z,13.63
2018-07-02T23:12:50.114Z,14.33
2018-07-02T23:15:24.138Z,14.70
2018-07-02T23:17:58.107Z,14.23
2018-07-02T23:20:32.112Z,14.77
2018-07-02T23:23:06.102Z,14.03
2018-07-02T23:25:39.928Z,13.93
2018-07-02T23:28:14.016Z,13.17
2018-07-02T23:30:47.916Z,12.13
2018-07-02T23:33:21.887Z,12.97
2018-07-02T23:35:55.684Z,12.53
2018-07-02T23:38:29.477Z,12.00
2018-07-02T23:41:03.872Z,13.13
2018-07-02T23:43:37.631Z,11.17
2018-07-02T23:46:11.853Z,12.33
2018-07-02T23:48:45.711Z,11.90
2018-07-02T23:51:19.908Z,12.47
2018-07-02T23:53:53.912Z,11.83
2018-07-02T23:56:27.828Z,12.10
2018-07-02T23:59:01.713Z,12.33
